createdAt,value
2023-05-25T00:01:04.768Z,6.65
2023-05-25T00:03:32.625Z,6.35
2023-05-25T00:06:03.910Z,5.78
2023-05-25T00:08:31.131Z,5.25
2023-05-25T00:10:58.662Z,5.30
2023-05-25T00:13:25.864Z,7.03
2023-05-25T00:15:52.969Z,4.50
2023-05-25T00:18:20.040Z,5.38
2023-05-25T00:20:47.673Z,9.75
2023-05-25T00:23:15.002Z,10.48
2023-05-25T00:25:42.588Z,8.98
2023-05-25T00:28:11.496Z,8.80
2023-05-25T00:30:39.055Z,6.65
2023-05-25T00:33:07.108Z,5.00
2023-05-25T00:35:34.192Z,4.75
2023-05-25T00:38:01.257Z,4.57
2023-05-25T00:40:28.353Z,4.93
2023-05-25T00:42:56.204Z,4.28
2023-05-25T00:45:23.626Z,5.10
2023-05-25T00:47:52.308Z,5.72
2023-05-25T00:50:33.503Z,4.47
2023-05-25T00:53:01.168Z,6.53
2023-05-25T00:55:31.539Z,5.10
2023-05-25T00:58:01.049Z,5.22
2023-05-25T01:00:30.583Z,5.68
2023-05-25T01:02:59.736Z,6.05
2023-05-25T01:05:30.808Z,6.82
2023-05-25T01:08:01.876Z,5.82
2023-05-25T01:10:32.736Z,6.80
2023-05-25T01:13:02.088Z,5.82
2023-05-25T01:15:30.977Z,5.00
2023-05-25T01:17:59.233Z,4.78
2023-05-25T01:20:35.679Z,5.03
2023-05-25T01:23:17.506Z,5.85
2023-05-25T01:25:51.456Z,5.18
2023-05-25T01:28:25.342Z,4.78
2023-05-25T01:30:53.706Z,4.78
2023-05-25T01:33:21.563Z,6.03
2023-05-25T01:35:49.072Z,5.75
2023-05-25T01:38:17.709Z,5.32
2023-05-25T01:40:44.794Z,6.43
2023-05-25T01:43:12.263Z,6.38
2023-05-25T01:45:39.324Z,6.53
2023-05-25T01:48:17.557Z,6.97
2023-05-25T01:50:57.994Z,7.18
2023-05-25T01:53:36.105Z,8.20
2023-05-25T01:56:11.442Z,8.38
2023-05-25T01:58:47.174Z,7.03
2023-05-25T02:01:17.006Z,6.85
2023-05-25T02:03:49.066Z,6.95
2023-05-25T02:06:16.742Z,7.47
2023-05-25T02:08:46.716Z,7.00
2023-05-25T02:11:17.217Z,7.07
2023-05-25T02:13:46.191Z,5.97
2023-05-25T02:16:13.361Z,6.53
2023-05-25T02:18:45.835Z,5.38
2023-05-25T02:21:13.068Z,6.03
2023-05-25T02:23:40.377Z,6.10
2023-05-25T02:26:07.565Z,5.38
2023-05-25T02:28:34.725Z,5.40
2023-05-25T02:31:01.974Z,6.03
2023-05-25T02:33:29.108Z,7.07
2023-05-25T02:35:57.754Z,6.13
2023-05-25T02:38:24.838Z,6.82
2023-05-25T02:40:51.921Z,7.53
2023-05-25T02:43:20.940Z,7.90
2023-05-25T02:45:48.016Z,8.85
2023-05-25T02:48:15.292Z,9.85
2023-05-25T02:50:42.454Z,7.80
2023-05-25T02:53:13.374Z,7.53
2023-05-25T02:55:40.528Z,7.05
2023-05-25T02:58:11.193Z,7.15
2023-05-25T03:00:56.781Z,6.72
2023-05-25T03:03:23.881Z,6.15
2023-05-25T03:05:51.568Z,5.72
2023-05-25T03:08:18.870Z,5.95
2023-05-25T03:10:46.030Z,5.57
2023-05-25T03:13:13.100Z,5.80
2023-05-25T03:15:40.360Z,6.32
2023-05-25T03:18:07.844Z,7.10
2023-05-25T03:20:38.198Z,6.35
2023-05-25T03:23:05.544Z,7.05
2023-05-25T03:25:34.121Z,6.53
2023-05-25T03:28:01.599Z,5.93
2023-05-25T03:30:29.659Z,6.32
2023-05-25T03:32:57.267Z,6.22
2023-05-25T03:35:28.472Z,6.17
2023-05-25T03:37:55.550Z,7.25
2023-05-25T03:40:22.795Z,5.22
2023-05-25T03:42:49.934Z,5.95
2023-05-25T03:45:17.124Z,5.72
2023-05-25T03:47:45.530Z,6.10
2023-05-25T03:50:13.025Z,5.32
2023-05-25T03:52:40.117Z,5.35
2023-05-25T03:55:07.424Z,4.80
2023-05-25T03:57:34.493Z,5.18
2023-05-25T04:00:01.906Z,5.93
2023-05-25T04:02:29.056Z,6.97
2023-05-25T04:04:57.117Z,5.93
2023-05-25T04:07:27.390Z,6.22
2023-05-25T04:09:54.470Z,5.53
2023-05-25T04:12:22.074Z,6.20
2023-05-25T04:14:49.157Z,6.03
2023-05-25T04:17:18.945Z,7.25
2023-05-25T04:19:46.406Z,6.43
2023-05-25T04:22:13.477Z,7.00
2023-05-25T04:24:41.338Z,5.82
2023-05-25T04:27:08.534Z,6.47
2023-05-25T04:29:37.127Z,5.85
2023-05-25T04:32:30.145Z,6.35
2023-05-25T04:35:15.843Z,8.57
2023-05-25T04:37:47.070Z,5.78
2023-05-25T04:40:14.640Z,5.22
2023-05-25T04:42:42.725Z,5.55
2023-05-25T04:45:10.507Z,6.95
2023-05-25T04:47:41.138Z,6.82
2023-05-25T04:50:10.934Z,6.05
2023-05-25T04:52:39.012Z,5.28
2023-05-25T04:55:06.607Z,6.43
2023-05-25T04:57:36.962Z,5.90
2023-05-25T05:00:05.944Z,6.43
2023-05-25T05:02:33.337Z,7.03
2023-05-25T05:05:00.470Z,7.10
2023-05-25T05:07:28.981Z,7.47
2023-05-25T05:09:56.302Z,7.25
2023-05-25T05:12:23.619Z,7.05
2023-05-25T05:14:53.073Z,7.28
2023-05-25T05:17:20.542Z,7.47
2023-05-25T05:19:47.894Z,7.32
2023-05-25T05:22:16.128Z,7.80
2023-05-25T05:24:45.511Z,6.47
2023-05-25T05:27:17.163Z,7.13
2023-05-25T05:29:47.930Z,7.68
2023-05-25T05:32:15.704Z,6.85
2023-05-25T05:34:42.860Z,7.95
2023-05-25T05:37:21.099Z,7.50
2023-05-25T05:39:48.188Z,7.90
2023-05-25T05:42:15.562Z,7.35
2023-05-25T05:44:42.690Z,7.70
2023-05-25T05:47:09.945Z,8.13
2023-05-25T05:49:39.238Z,7.88
2023-05-25T05:52:09.022Z,7.82
2023-05-25T05:54:36.606Z,9.13
2023-05-25T05:57:09.412Z,8.38
2023-05-25T05:59:36.594Z,8.15
2023-05-25T06:02:04.313Z,8.63
2023-05-25T06:04:31.567Z,8.38
2023-05-25T06:06:59.191Z,9.80
2023-05-25T06:09:26.574Z,10.07
2023-05-25T06:11:56.017Z,10.70
2023-05-25T06:14:23.153Z,11.70
2023-05-25T06:16:51.153Z,11.05
2023-05-25T06:19:18.575Z,11.80
2023-05-25T06:21:46.088Z,9.85
2023-05-25T06:24:15.211Z,10.15
2023-05-25T06:26:42.261Z,9.35
2023-05-25T06:29:09.325Z,11.60
2023-05-25T06:31:36.474Z,10.05
2023-05-25T06:34:03.662Z,12.63
2023-05-25T06:36:32.131Z,9.75
2023-05-25T06:38:59.857Z,11.10
2023-05-25T06:41:27.770Z,8.93
2023-05-25T06:43:56.458Z,8.45
2023-05-25T06:46:30.394Z,7.05
2023-05-25T06:49:00.530Z,9.48
2023-05-25T06:51:27.986Z,7.47
2023-05-25T06:53:55.710Z,8.15
2023-05-25T06:56:23.484Z,7.32
2023-05-25T06:58:51.025Z,7.45
2023-05-25T07:01:18.086Z,8.20
2023-05-25T07:03:45.503Z,7.65
2023-05-25T07:06:12.932Z,7.18
2023-05-25T07:08:39.989Z,6.25
2023-05-25T07:11:10.482Z,6.90
2023-05-25T07:13:37.557Z,6.28
2023-05-25T07:16:04.692Z,5.93
2023-05-25T07:18:31.750Z,5.63
2023-05-25T07:20:59.318Z,6.70
2023-05-25T07:23:26.379Z,5.70
2023-05-25T07:25:53.439Z,5.65
2023-05-25T07:28:20.461Z,5.40
2023-05-25T07:30:47.520Z,6.22
2023-05-25T07:33:14.602Z,6.93
2023-05-25T07:35:41.822Z,6.25
2023-05-25T07:38:09.157Z,5.95
2023-05-25T07:40:36.579Z,5.43
2023-05-25T07:43:04.479Z,5.50
2023-05-25T07:45:32.750Z,4.88
2023-05-25T07:47:59.805Z,5.43
2023-05-25T07:50:26.987Z,4.75
2023-05-25T07:52:54.018Z,4.05
2023-05-25T07:55:21.249Z,4.15
2023-05-25T07:57:48.381Z,3.83
2023-05-25T08:00:15.845Z,4.15
2023-05-25T08:02:44.127Z,6.65
2023-05-25T08:05:11.431Z,4.50
2023-05-25T08:07:40.053Z,4.10
2023-05-25T08:10:09.284Z,4.22
2023-05-25T08:12:47.865Z,2.90
2023-05-25T08:15:16.805Z,5.07
2023-05-25T08:17:44.514Z,3.42
2023-05-25T08:20:12.379Z,3.72
2023-05-25T08:22:39.700Z,3.25
2023-05-25T08:25:07.968Z,4.05
2023-05-25T08:27:39.188Z,2.85
2023-05-25T08:30:06.921Z,3.22
2023-05-25T08:32:34.261Z,2.83
2023-05-25T08:35:03.569Z,3.00
2023-05-25T08:37:32.288Z,2.60
2023-05-25T08:40:02.107Z,2.67
2023-05-25T08:42:29.632Z,3.85
2023-05-25T08:44:56.877Z,2.78
2023-05-25T08:47:24.257Z,3.22
2023-05-25T08:49:52.830Z,2.88
2023-05-25T08:52:22.937Z,3.38
2023-05-25T08:54:53.641Z,2.63
2023-05-25T08:57:27.403Z,2.45
2023-05-25T09:00:02.831Z,2.83
2023-05-25T09:02:45.103Z,2.80
2023-05-25T09:05:13.735Z,2.50
2023-05-25T09:07:43.020Z,2.53
2023-05-25T09:10:14.995Z,2.25
2023-05-25T09:12:42.843Z,3.20
2023-05-25T09:15:13.306Z,2.28
2023-05-25T09:17:41.317Z,2.22
2023-05-25T09:20:10.762Z,2.28
2023-05-25T09:22:38.362Z,2.67
2023-05-25T09:25:07.948Z,2.35
2023-05-25T09:27:37.319Z,2.92
2023-05-25T09:30:05.802Z,2.42
2023-05-25T09:32:33.075Z,2.55
2023-05-25T09:35:11.715Z,2.35
2023-05-25T09:37:40.765Z,3.80
2023-05-25T09:40:10.702Z,2.72
2023-05-25T09:42:38.549Z,3.80
2023-05-25T09:45:06.808Z,2.65
2023-05-25T09:47:36.628Z,2.20
2023-05-25T09:50:04.095Z,2.65
2023-05-25T09:52:31.419Z,2.75
2023-05-25T09:54:59.238Z,2.20
2023-05-25T09:57:27.177Z,2.85
2023-05-25T09:59:54.234Z,3.42
2023-05-25T10:02:21.696Z,2.85
2023-05-25T10:04:48.835Z,2.58
2023-05-25T10:07:17.254Z,2.15
2023-05-25T10:09:46.382Z,2.70
2023-05-25T10:12:19.295Z,3.13
2023-05-25T10:14:48.573Z,2.60
2023-05-25T10:17:22.827Z,2.92
2023-05-25T10:20:05.295Z,3.13
2023-05-25T10:22:36.756Z,2.35
2023-05-25T10:25:42.623Z,3.38
2023-05-25T10:28:12.604Z,2.92
2023-05-25T10:30:41.314Z,4.53
2023-05-25T10:33:08.753Z,3.97
2023-05-25T10:35:56.248Z,3.20
2023-05-25T10:38:26.805Z,3.13
2023-05-25T10:40:55.069Z,3.15
2023-05-25T10:43:23.503Z,2.53
2023-05-25T10:45:50.623Z,3.90
2023-05-25T10:48:17.807Z,2.75
2023-05-25T10:50:50.678Z,2.40
2023-05-25T10:53:24.020Z,2.45
2023-05-25T10:55:53.756Z,3.03
2023-05-25T10:58:22.884Z,2.05
2023-05-25T11:01:02.261Z,2.80
2023-05-25T11:03:44.888Z,2.75
2023-05-25T11:08:54.928Z,2.72
2023-05-25T11:11:42.776Z,2.47
2023-05-25T11:14:29.654Z,2.45
2023-05-25T11:17:16.420Z,3.67
2023-05-25T11:19:50.996Z,3.08
2023-05-25T11:22:21.155Z,2.42
2023-05-25T11:24:50.054Z,2.58
2023-05-25T11:27:24.830Z,3.17
2023-05-25T11:29:52.802Z,3.10
2023-05-25T11:32:21.290Z,2.85
2023-05-25T11:34:48.800Z,2.28
2023-05-25T11:37:17.253Z,2.47
2023-05-25T11:39:47.687Z,3.80
2023-05-25T11:42:15.188Z,2.95
2023-05-25T11:44:43.404Z,4.05
2023-05-25T11:47:14.331Z,2.70
2023-05-25T11:49:44.142Z,3.28
2023-05-25T11:52:13.002Z,2.80
2023-05-25T11:54:43.391Z,2.20
2023-05-25T11:57:27.341Z,2.50
2023-05-25T11:59:56.186Z,2.50
2023-05-25T12:02:24.258Z,3.58
2023-05-25T12:04:56.956Z,2.95
2023-05-25T12:07:26.083Z,2.50
2023-05-25T12:10:15.049Z,2.78
2023-05-25T12:12:42.980Z,4.03
2023-05-25T12:15:12.128Z,3.08
2023-05-25T12:17:44.082Z,2.78
2023-05-25T12:20:12.884Z,3.03
2023-05-25T12:22:40.709Z,2.58
2023-05-25T12:25:10.273Z,3.50
2023-05-25T12:27:38.120Z,2.92
2023-05-25T12:30:06.200Z,3.88
2023-05-25T12:32:33.421Z,4.00
2023-05-25T12:35:05.281Z,3.78
2023-05-25T12:37:33.290Z,4.55
2023-05-25T12:40:00.628Z,3.33
2023-05-25T12:42:27.839Z,4.22
2023-05-25T12:45:01.633Z,3.92
2023-05-25T12:47:30.241Z,3.40
2023-05-25T12:50:14.747Z,3.95
2023-05-25T12:52:44.191Z,3.88
2023-05-25T12:55:25.990Z,4.10
2023-05-25T12:57:54.711Z,3.90
2023-05-25T13:00:27.503Z,4.20
2023-05-25T13:02:54.888Z,4.15
2023-05-25T13:05:26.397Z,3.60
2023-05-25T13:07:56.386Z,4.00
2023-05-25T13:10:24.463Z,3.67
2023-05-25T13:12:53.491Z,3.63
2023-05-25T13:15:21.893Z,3.65
2023-05-25T13:17:50.746Z,3.85
2023-05-25T13:20:23.488Z,4.25
2023-05-25T13:22:52.378Z,4.07
2023-05-25T13:25:19.735Z,3.60
2023-05-25T13:27:49.474Z,3.95
2023-05-25T13:30:17.130Z,3.95
2023-05-25T13:32:44.550Z,3.58
2023-05-25T13:35:18.353Z,5.28
2023-05-25T13:37:46.263Z,3.78
2023-05-25T13:40:14.710Z,3.65
2023-05-25T13:42:41.823Z,4.13
2023-05-25T13:45:09.518Z,4.00
2023-05-25T13:47:36.895Z,3.92
2023-05-25T13:50:04.602Z,3.97
2023-05-25T13:52:31.690Z,3.75
2023-05-25T13:54:58.716Z,4.50
2023-05-25T13:57:25.930Z,4.35
2023-05-25T13:59:52.986Z,5.35
2023-05-25T14:02:20.127Z,4.80
2023-05-25T14:04:47.277Z,3.83
2023-05-25T14:07:14.319Z,4.22
2023-05-25T14:09:41.535Z,4.50
2023-05-25T14:12:08.681Z,4.93
2023-05-25T14:14:36.780Z,3.88
2023-05-25T14:17:03.994Z,4.15
2023-05-25T14:19:31.292Z,5.10
2023-05-25T14:24:28.415Z,4.10
2023-05-25T14:26:58.257Z,4.15
2023-05-25T14:29:25.438Z,4.47
2023-05-25T14:31:52.820Z,4.28
2023-05-25T14:34:20.058Z,4.55
2023-05-25T14:36:47.085Z,4.28
2023-05-25T14:39:16.464Z,4.53
2023-05-25T14:41:44.448Z,3.88
2023-05-25T14:44:11.565Z,4.68
2023-05-25T14:46:38.746Z,4.20
2023-05-25T14:49:05.809Z,4.22
2023-05-25T14:51:32.883Z,4.30
2023-05-25T14:54:03.354Z,4.00
2023-05-25T14:56:30.600Z,4.60
2023-05-25T14:58:57.643Z,4.32
2023-05-25T15:01:25.579Z,4.10
2023-05-25T15:03:53.028Z,4.30
2023-05-25T15:06:20.395Z,4.30
2023-05-25T15:08:47.443Z,4.25
2023-05-25T15:11:14.493Z,3.72
2023-05-25T15:13:41.599Z,3.17
2023-05-25T15:16:12.472Z,3.58
2023-05-25T15:18:39.642Z,3.35
2023-05-25T15:21:06.740Z,3.90
2023-05-25T15:23:33.851Z,4.20
2023-05-25T15:26:04.750Z,3.67
2023-05-25T15:28:31.918Z,3.50
2023-05-25T15:31:01.720Z,3.25
2023-05-25T15:33:49.539Z,4.00
2023-05-25T15:36:19.034Z,3.53
2023-05-25T15:38:49.076Z,4.00
2023-05-25T15:41:17.399Z,3.50
2023-05-25T15:43:54.240Z,4.40
2023-05-25T15:46:21.354Z,3.50
2023-05-25T15:48:48.414Z,4.82
2023-05-25T15:51:15.718Z,3.67
2023-05-25T15:53:42.822Z,3.75
2023-05-25T15:56:10.012Z,4.40
2023-05-25T15:58:37.036Z,4.15
2023-05-25T16:01:04.355Z,4.43
2023-05-25T16:03:31.721Z,3.67
2023-05-25T16:05:58.839Z,3.85
2023-05-25T16:08:25.865Z,3.92
2023-05-25T16:10:52.903Z,4.50
2023-05-25T16:13:19.971Z,4.20
2023-05-25T16:15:47.232Z,4.15
2023-05-25T16:18:14.613Z,4.40
2023-05-25T16:20:41.711Z,4.72
2023-05-25T16:23:08.785Z,4.22
2023-05-25T16:25:35.903Z,4.47
2023-05-25T16:28:03.068Z,3.55
2023-05-25T16:30:30.355Z,3.97
2023-05-25T16:32:57.439Z,4.70
2023-05-25T16:35:24.494Z,5.18
2023-05-25T16:37:51.533Z,4.78
2023-05-25T16:40:18.562Z,4.93
2023-05-25T16:42:45.748Z,4.93
2023-05-25T16:45:12.932Z,4.20
2023-05-25T16:47:40.002Z,4.80
2023-05-25T16:50:07.983Z,3.83
2023-05-25T16:52:35.640Z,3.92
2023-05-25T16:55:03.264Z,4.32
2023-05-25T16:57:30.530Z,4.47
2023-05-25T16:59:57.601Z,3.80
2023-05-25T17:02:24.997Z,3.65
2023-05-25T17:04:52.105Z,4.43
2023-05-25T17:07:19.177Z,4.15
2023-05-25T17:09:46.233Z,3.92
2023-05-25T17:12:13.296Z,4.38
2023-05-25T17:14:40.430Z,5.28
2023-05-25T17:17:07.528Z,3.88
2023-05-25T17:19:34.751Z,4.57
2023-05-25T17:22:01.786Z,4.07
2023-05-25T17:24:28.863Z,4.22
2023-05-25T17:26:56.039Z,4.85
2023-05-25T17:29:23.126Z,4.10
2023-05-25T17:31:50.388Z,4.85
2023-05-25T17:34:17.618Z,3.67
2023-05-25T17:36:44.809Z,4.60
2023-05-25T17:39:11.871Z,4.50
2023-05-25T17:41:38.968Z,5.28
2023-05-25T17:44:06.132Z,4.50
2023-05-25T17:46:33.185Z,4.85
2023-05-25T17:49:00.510Z,5.55
2023-05-25T17:51:27.577Z,4.68
2023-05-25T17:53:54.628Z,4.75
2023-05-25T17:56:22.190Z,5.05
2023-05-25T17:58:49.350Z,4.40
2023-05-25T18:01:16.827Z,4.88
2023-05-25T18:03:44.121Z,4.30
2023-05-25T18:06:11.259Z,4.45
2023-05-25T18:08:38.271Z,5.32
2023-05-25T18:11:05.641Z,5.00
2023-05-25T18:13:32.820Z,4.53
2023-05-25T18:15:59.929Z,5.18
2023-05-25T18:18:27.182Z,5.97
2023-05-25T18:20:54.255Z,4.85
2023-05-25T18:23:22.374Z,6.28
2023-05-25T18:25:49.547Z,5.05
2023-05-25T18:28:16.747Z,5.88
2023-05-25T18:30:43.910Z,5.03
2023-05-25T18:33:11.111Z,5.88
2023-05-25T18:35:38.680Z,5.45
2023-05-25T18:38:06.586Z,6.07
2023-05-25T18:40:33.698Z,5.75
2023-05-25T18:43:00.849Z,6.43
2023-05-25T18:45:27.910Z,5.65
2023-05-25T18:47:55.059Z,5.88
2023-05-25T18:50:22.137Z,5.85
2023-05-25T18:52:51.273Z,6.70
2023-05-25T18:55:18.999Z,6.13
2023-05-25T18:57:46.687Z,5.82
2023-05-25T19:00:14.412Z,6.70
2023-05-25T19:02:41.785Z,5.57
2023-05-25T19:05:11.466Z,6.28
2023-05-25T19:07:54.675Z,6.68
2023-05-25T19:10:25.350Z,5.90
2023-05-25T19:12:52.476Z,5.18
2023-05-25T19:15:19.601Z,6.30
2023-05-25T19:17:47.043Z,5.82
2023-05-25T19:20:14.505Z,6.82
2023-05-25T19:22:42.516Z,5.80
2023-05-25T19:25:09.745Z,6.53
2023-05-25T19:27:36.844Z,7.43
2023-05-25T19:30:04.613Z,7.13
2023-05-25T19:32:31.689Z,6.65
2023-05-25T19:34:58.798Z,6.70
2023-05-25T19:37:26.477Z,7.03
2023-05-25T19:39:53.533Z,7.43
2023-05-25T19:42:20.770Z,7.28
2023-05-25T19:44:47.803Z,7.53
2023-05-25T19:47:14.926Z,8.23
2023-05-25T19:49:42.745Z,8.18
2023-05-25T19:52:09.815Z,7.70
2023-05-25T19:54:38.583Z,6.72
2023-05-25T19:57:06.636Z,6.85
2023-05-25T19:59:33.816Z,7.00
2023-05-25T20:02:00.921Z,6.78
2023-05-25T20:04:28.005Z,7.32
2023-05-25T20:06:55.102Z,7.40
2023-05-25T20:09:30.465Z,7.97
2023-05-25T20:11:58.516Z,6.82
2023-05-25T20:14:26.276Z,6.65
2023-05-25T20:16:55.682Z,7.18
2023-05-25T20:19:25.534Z,8.88
2023-05-25T20:21:53.318Z,7.13
2023-05-25T20:24:21.879Z,7.07
2023-05-25T20:26:49.084Z,6.03
2023-05-25T20:29:16.120Z,6.38
2023-05-25T20:31:43.175Z,6.20
2023-05-25T20:34:10.235Z,7.03
2023-05-25T20:36:38.061Z,6.80
2023-05-25T20:39:05.504Z,7.30
2023-05-25T20:41:32.582Z,6.93
2023-05-25T20:43:59.677Z,7.45
2023-05-25T20:46:26.734Z,6.85
2023-05-25T20:48:54.112Z,7.55
2023-05-25T20:51:21.775Z,6.57
2023-05-25T20:53:48.905Z,6.57
2023-05-25T20:56:16.055Z,6.63
2023-05-25T20:58:43.365Z,6.68
2023-05-25T21:01:10.521Z,6.65
2023-05-25T21:03:37.833Z,5.68
2023-05-25T21:06:04.995Z,6.28
2023-05-25T21:08:33.235Z,6.28
2023-05-25T21:11:00.273Z,7.88
2023-05-25T21:13:27.457Z,6.53
2023-05-25T21:15:54.529Z,6.40
2023-05-25T21:18:21.618Z,6.63
2023-05-25T21:20:49.059Z,6.57
2023-05-25T21:23:16.230Z,6.03
2023-05-25T21:25:43.507Z,6.22
2023-05-25T21:28:10.963Z,6.53
2023-05-25T21:30:38.004Z,6.13
2023-05-25T21:33:13.447Z,6.10
2023-05-25T21:35:40.648Z,5.85
2023-05-25T21:38:08.694Z,7.38
2023-05-25T21:40:38.622Z,6.45
2023-05-25T21:43:06.483Z,6.65
2023-05-25T21:45:33.557Z,7.35
2023-05-25T21:48:00.673Z,7.38
2023-05-25T21:50:28.472Z,7.28
2023-05-25T21:52:55.534Z,6.47
2023-05-25T21:55:22.759Z,7.97
2023-05-25T21:57:49.770Z,7.15
2023-05-25T22:00:17.184Z,8.07
2023-05-25T22:02:44.383Z,6.25
2023-05-25T22:05:11.509Z,7.15
2023-05-25T22:07:38.615Z,7.07
2023-05-25T22:10:06.717Z,6.43
2023-05-25T22:12:33.751Z,7.93
2023-05-25T22:15:00.871Z,7.55
2023-05-25T22:17:28.001Z,7.90
2023-05-25T22:20:06.463Z,7.75
2023-05-25T22:22:34.977Z,7.10
2023-05-25T22:25:02.005Z,7.47
2023-05-25T22:27:29.082Z,7.57
2023-05-25T22:29:56.105Z,6.53
2023-05-25T22:32:23.411Z,6.65
2023-05-25T22:34:50.554Z,6.03
2023-05-25T22:37:17.746Z,7.57
2023-05-25T22:39:44.795Z,7.30
2023-05-25T22:42:11.978Z,7.75
2023-05-25T22:44:39.064Z,7.70
2023-05-25T22:47:06.522Z,8.35
2023-05-25T22:49:41.184Z,10.18
2023-05-25T22:52:11.322Z,9.43
2023-05-25T22:54:38.526Z,9.32
2023-05-25T22:57:06.328Z,10.48
2023-05-25T22:59:33.434Z,9.05
2023-05-25T23:02:00.688Z,10.30
2023-05-25T23:04:27.847Z,10.05
2023-05-25T23:06:54.909Z,9.18
2023-05-25T23:09:21.947Z,8.75
2023-05-25T23:11:49.073Z,8.85
2023-05-25T23:14:16.104Z,8.32
2023-05-25T23:16:44.305Z,8.30
2023-05-25T23:19:11.475Z,7.53
2023-05-25T23:21:38.548Z,7.18
2023-05-25T23:24:06.059Z,6.97
2023-05-25T23:26:33.117Z,7.07
2023-05-25T23:29:00.200Z,6.65
2023-05-25T23:31:27.412Z,7.22
2023-05-25T23:33:54.521Z,6.93
2023-05-25T23:36:21.608Z,7.05
2023-05-25T23:38:48.632Z,9.10
2023-05-25T23:41:16.483Z,11.73
2023-05-25T23:43:43.585Z,11.88
2023-05-25T23:46:10.719Z,14.40
2023-05-25T23:48:37.808Z,9.25
2023-05-25T23:51:07.381Z,7.30
2023-05-25T23:53:34.393Z,8.20
2023-05-25T23:56:01.458Z,7.78
2023-05-25T23:58:28.586Z,6.43
